sensor_id;sensor_type;location;lat;lon;timestamp;P1;durP1;ratioP1;P2;durP2;ratioP2
30010;SDS011;16851;53.564;8.112;2022-09-09T00:02:20;24.60;;;20.10;;
30010;SDS011;16851;53.564;8.112;2022-09-09T00:12:36;31.65;;;21.48;;
30010;SDS011;16851;53.564;8.112;2022-09-09T00:23:06;29.85;;;22.98;;
30010;SDS011;16851;53.564;8.112;2022-09-09T00:28:16;36.78;;;25.10;;
30010;SDS011;16851;53.564;8.112;2022-09-09T00:33:21;33.20;;;25.02;;
30010;SDS011;16851;53.564;8.112;2022-09-09T00:43:37;32.13;;;23.05;;
30010;SDS011;16851;53.564;8.112;2022-09-09T00:54:31;18.33;;;16.25;;
30010;SDS011;16851;53.564;8.112;2022-09-09T00:59:47;16.58;;;14.38;;
30010;SDS011;16851;53.564;8.112;2022-09-09T01:04:50;20.50;;;14.40;;
30010;SDS011;16851;53.564;8.112;2022-09-09T01:15:08;24.98;;;18.05;;
30010;SDS011;16851;53.564;8.112;2022-09-09T01:20:26;37.00;;;24.13;;
30010;SDS011;16851;53.564;8.112;2022-09-09T01:30:56;30.85;;;22.63;;
30010;SDS011;16851;53.564;8.112;2022-09-09T01:36:03;30.38;;;21.45;;
30010;SDS011;16851;53.564;8.112;2022-09-09T01:41:19;28.63;;;21.35;;
30010;SDS011;16851;53.564;8.112;2022-09-09T01:46:33;30.00;;;22.42;;
30010;SDS011;16851;53.564;8.112;2022-09-09T01:51:36;37.92;;;26.73;;
30010;SDS011;16851;53.564;8.112;2022-09-09T02:02:19;33.95;;;24.88;;
30010;SDS011;16851;53.564;8.112;2022-09-09T02:08:07;24.92;;;20.45;;
30010;SDS011;16851;53.564;8.112;2022-09-09T02:13:37;25.08;;;19.88;;
30010;SDS011;16851;53.564;8.112;2022-09-09T02:24:42;33.38;;;25.98;;
30010;SDS011;16851;53.564;8.112;2022-09-09T02:29:53;29.58;;;22.20;;
30010;SDS011;16851;53.564;8.112;2022-09-09T02:35:12;23.85;;;18.42;;
30010;SDS011;16851;53.564;8.112;2022-09-09T02:40:22;21.88;;;18.52;;
30010;SDS011;16851;53.564;8.112;2022-09-09T02:45:34;25.77;;;20.65;;
30010;SDS011;16851;53.564;8.112;2022-09-09T02:56:06;29.65;;;23.55;;
30010;SDS011;16851;53.564;8.112;2022-09-09T03:01:16;34.80;;;24.92;;
30010;SDS011;16851;53.564;8.112;2022-09-09T03:06:22;37.45;;;25.67;;
30010;SDS011;16851;53.564;8.112;2022-09-09T03:11:32;33.08;;;25.23;;
30010;SDS011;16851;53.564;8.112;2022-09-09T03:16:38;32.70;;;24.77;;
30010;SDS011;16851;53.564;8.112;2022-09-09T03:21:42;40.42;;;27.05;;
30010;SDS011;16851;53.564;8.112;2022-09-09T03:26:47;40.08;;;26.02;;
30010;SDS011;16851;53.564;8.112;2022-09-09T03:31:52;35.30;;;23.77;;
30010;SDS011;16851;53.564;8.112;2022-09-09T03:37:01;42.75;;;27.10;;
30010;SDS011;16851;53.564;8.112;2022-09-09T03:42:06;34.70;;;24.30;;
30010;SDS011;16851;53.564;8.112;2022-09-09T03:47:21;35.65;;;26.65;;
30010;SDS011;16851;53.564;8.112;2022-09-09T03:52:31;27.10;;;21.42;;
30010;SDS011;16851;53.564;8.112;2022-09-09T03:57:42;25.73;;;17.30;;
30010;SDS011;16851;53.564;8.112;2022-09-09T04:02:44;26.42;;;18.30;;
30010;SDS011;16851;53.564;8.112;2022-09-09T04:07:49;24.25;;;17.83;;
30010;SDS011;16851;53.564;8.112;2022-09-09T04:12:55;29.08;;;21.23;;
30010;SDS011;16851;53.564;8.112;2022-09-09T04:18:01;31.38;;;22.80;;
30010;SDS011;16851;53.564;8.112;2022-09-09T04:23:06;32.40;;;22.98;;
30010;SDS011;16851;53.564;8.112;2022-09-09T04:28:10;37.53;;;25.65;;
30010;SDS011;16851;53.564;8.112;2022-09-09T04:33:13;32.40;;;22.27;;
30010;SDS011;16851;53.564;8.112;2022-09-09T04:38:19;33.25;;;20.27;;
30010;SDS011;16851;53.564;8.112;2022-09-09T04:43:21;35.92;;;22.40;;
30010;SDS011;16851;53.564;8.112;2022-09-09T04:48:26;33.63;;;21.23;;
30010;SDS011;16851;53.564;8.112;2022-09-09T04:53:30;33.75;;;23.00;;
30010;SDS011;16851;53.564;8.112;2022-09-09T04:58:32;32.57;;;24.43;;
30010;SDS011;16851;53.564;8.112;2022-09-09T05:03:38;38.60;;;26.80;;
30010;SDS011;16851;53.564;8.112;2022-09-09T05:08:46;37.25;;;24.75;;
30010;SDS011;16851;53.564;8.112;2022-09-09T05:13:58;39.53;;;23.52;;
30010;SDS011;16851;53.564;8.112;2022-09-09T05:19:03;38.55;;;24.63;;
30010;SDS011;16851;53.564;8.112;2022-09-09T05:24:19;34.58;;;24.00;;
30010;SDS011;16851;53.564;8.112;2022-09-09T05:29:25;34.42;;;24.15;;
30010;SDS011;16851;53.564;8.112;2022-09-09T05:34:33;33.78;;;23.45;;
30010;SDS011;16851;53.564;8.112;2022-09-09T05:39:40;33.95;;;24.10;;
30010;SDS011;16851;53.564;8.112;2022-09-09T05:44:46;35.65;;;24.30;;
30010;SDS011;16851;53.564;8.112;2022-09-09T05:49:57;33.28;;;23.83;;
30010;SDS011;16851;53.564;8.112;2022-09-09T05:55:03;36.80;;;23.15;;
30010;SDS011;16851;53.564;8.112;2022-09-09T06:00:08;29.20;;;23.15;;
30010;SDS011;16851;53.564;8.112;2022-09-09T06:05:23;32.88;;;22.13;;
30010;SDS011;16851;53.564;8.112;2022-09-09T06:10:31;27.90;;;20.33;;
30010;SDS011;16851;53.564;8.112;2022-09-09T06:15:35;31.90;;;20.73;;
30010;SDS011;16851;53.564;8.112;2022-09-09T06:20:39;29.15;;;19.23;;
30010;SDS011;16851;53.564;8.112;2022-09-09T06:25:43;24.67;;;18.48;;
30010;SDS011;16851;53.564;8.112;2022-09-09T06:30:50;31.67;;;19.27;;
30010;SDS011;16851;53.564;8.112;2022-09-09T06:36:00;27.60;;;18.55;;
30010;SDS011;16851;53.564;8.112;2022-09-09T06:41:06;23.10;;;15.27;;
30010;SDS011;16851;53.564;8.112;2022-09-09T06:46:12;22.30;;;13.50;;
30010;SDS011;16851;53.564;8.112;2022-09-09T06:51:31;17.92;;;13.82;;
30010;SDS011;16851;53.564;8.112;2022-09-09T06:56:38;12.20;;;9.18;;
30010;SDS011;16851;53.564;8.112;2022-09-09T07:01:49;16.23;;;8.85;;
30010;SDS011;16851;53.564;8.112;2022-09-09T07:06:56;12.95;;;7.60;;
30010;SDS011;16851;53.564;8.112;2022-09-09T07:12:02;12.48;;;8.15;;
30010;SDS011;16851;53.564;8.112;2022-09-09T07:17:12;7.93;;;6.43;;
30010;SDS011;16851;53.564;8.112;2022-09-09T07:22:14;8.85;;;6.63;;
30010;SDS011;16851;53.564;8.112;2022-09-09T07:27:19;12.15;;;7.28;;
30010;SDS011;16851;53.564;8.112;2022-09-09T07:32:25;11.18;;;6.45;;
30010;SDS011;16851;53.564;8.112;2022-09-09T07:37:29;10.00;;;6.53;;
30010;SDS011;16851;53.564;8.112;2022-09-09T07:42:31;10.18;;;6.35;;
30010;SDS011;16851;53.564;8.112;2022-09-09T07:47:37;12.27;;;6.50;;
30010;SDS011;16851;53.564;8.112;2022-09-09T07:52:39;10.55;;;6.38;;
30010;SDS011;16851;53.564;8.112;2022-09-09T07:57:43;14.27;;;6.80;;
30010;SDS011;16851;53.564;8.112;2022-09-09T08:02:46;10.60;;;5.93;;
30010;SDS011;16851;53.564;8.112;2022-09-09T08:07:48;8.68;;;5.22;;
30010;SDS011;16851;53.564;8.112;2022-09-09T08:12:52;8.38;;;4.53;;
30010;SDS011;16851;53.564;8.112;2022-09-09T08:18:14;9.88;;;5.20;;
30010;SDS011;16851;53.564;8.112;2022-09-09T08:23:18;9.48;;;5.00;;
30010;SDS011;16851;53.564;8.112;2022-09-09T08:28:21;8.77;;;4.90;;
30010;SDS011;16851;53.564;8.112;2022-09-09T08:33:25;8.55;;;5.47;;
30010;SDS011;16851;53.564;8.112;2022-09-09T08:38:30;7.68;;;4.40;;
30010;SDS011;16851;53.564;8.112;2022-09-09T08:43:32;8.82;;;4.40;;
30010;SDS011;16851;53.564;8.112;2022-09-09T08:48:42;8.95;;;4.75;;
30010;SDS011;16851;53.564;8.112;2022-09-09T08:53:49;12.10;;;4.43;;
30010;SDS011;16851;53.564;8.112;2022-09-09T08:58:56;8.60;;;4.70;;
30010;SDS011;16851;53.564;8.112;2022-09-09T09:09:44;10.68;;;4.90;;
30010;SDS011;16851;53.564;8.112;2022-09-09T09:14:49;8.25;;;5.25;;
30010;SDS011;16851;53.564;8.112;2022-09-09T09:19:56;6.82;;;5.13;;
30010;SDS011;16851;53.564;8.112;2022-09-09T09:30:52;10.68;;;5.80;;
30010;SDS011;16851;53.564;8.112;2022-09-09T09:35:54;11.43;;;5.97;;
30010;SDS011;16851;53.564;8.112;2022-09-09T09:40:58;9.82;;;5.32;;
30010;SDS011;16851;53.564;8.112;2022-09-09T09:46:04;10.35;;;5.45;;
30010;SDS011;16851;53.564;8.112;2022-09-09T09:51:19;10.10;;;6.45;;
30010;SDS011;16851;53.564;8.112;2022-09-09T09:56:28;9.95;;;6.93;;
30010;SDS011;16851;53.564;8.112;2022-09-09T10:01:34;9.73;;;6.10;;
30010;SDS011;16851;53.564;8.112;2022-09-09T10:06:41;13.50;;;6.03;;
30010;SDS011;16851;53.564;8.112;2022-09-09T10:18:00;9.48;;;5.28;;
30010;SDS011;16851;53.564;8.112;2022-09-09T10:33:31;5.90;;;4.25;;
30010;SDS011;16851;53.564;8.112;2022-09-09T10:38:40;7.13;;;3.95;;
30010;SDS011;16851;53.564;8.112;2022-09-09T10:49:20;6.78;;;2.92;;
30010;SDS011;16851;53.564;8.112;2022-09-09T10:54:29;7.10;;;2.20;;
30010;SDS011;16851;53.564;8.112;2022-09-09T10:59:38;5.90;;;2.00;;
30010;SDS011;16851;53.564;8.112;2022-09-09T11:04:51;8.05;;;2.40;;
30010;SDS011;16851;53.564;8.112;2022-09-09T11:09:58;5.13;;;1.60;;
30010;SDS011;16851;53.564;8.112;2022-09-09T11:15:14;6.93;;;2.67;;
30010;SDS011;16851;53.564;8.112;2022-09-09T11:20:28;6.28;;;2.15;;
30010;SDS011;16851;53.564;8.112;2022-09-09T11:25:34;5.60;;;2.35;;
30010;SDS011;16851;53.564;8.112;2022-09-09T11:41:36;7.82;;;1.60;;
30010;SDS011;16851;53.564;8.112;2022-09-09T11:46:39;4.88;;;1.38;;
30010;SDS011;16851;53.564;8.112;2022-09-09T11:51:42;6.20;;;2.05;;
30010;SDS011;16851;53.564;8.112;2022-09-09T11:56:53;7.32;;;2.00;;
30010;SDS011;16851;53.564;8.112;2022-09-09T12:01:58;5.68;;;2.17;;
30010;SDS011;16851;53.564;8.112;2022-09-09T12:12:38;6.30;;;2.22;;
30010;SDS011;16851;53.564;8.112;2022-09-09T12:17:47;7.25;;;2.22;;
30010;SDS011;16851;53.564;8.112;2022-09-09T12:22:57;5.97;;;2.08;;
30010;SDS011;16851;53.564;8.112;2022-09-09T12:33:35;23.13;;;3.30;;
30010;SDS011;16851;53.564;8.112;2022-09-09T12:38:44;6.70;;;1.92;;
30010;SDS011;16851;53.564;8.112;2022-09-09T12:43:49;4.70;;;1.40;;
30010;SDS011;16851;53.564;8.112;2022-09-09T12:48:53;4.70;;;1.40;;
30010;SDS011;16851;53.564;8.112;2022-09-09T12:53:55;7.57;;;1.48;;
30010;SDS011;16851;53.564;8.112;2022-09-09T12:59:00;4.88;;;1.30;;
30010;SDS011;16851;53.564;8.112;2022-09-09T13:04:16;3.15;;;1.60;;
30010;SDS011;16851;53.564;8.112;2022-09-09T13:09:24;2.80;;;1.20;;
30010;SDS011;16851;53.564;8.112;2022-09-09T13:14:28;5.22;;;1.40;;
30010;SDS011;16851;53.564;8.112;2022-09-09T13:19:37;4.70;;;1.60;;
30010;SDS011;16851;53.564;8.112;2022-09-09T13:24:40;4.03;;;1.83;;
30010;SDS011;16851;53.564;8.112;2022-09-09T13:29:50;7.60;;;2.15;;
30010;SDS011;16851;53.564;8.112;2022-09-09T13:34:54;5.72;;;2.00;;
30010;SDS011;16851;53.564;8.112;2022-09-09T13:40:04;5.32;;;1.73;;
30010;SDS011;16851;53.564;8.112;2022-09-09T13:45:15;8.68;;;2.60;;
30010;SDS011;16851;53.564;8.112;2022-09-09T13:55:29;9.68;;;2.55;;
30010;SDS011;16851;53.564;8.112;2022-09-09T14:00:34;8.98;;;2.97;;
30010;SDS011;16851;53.564;8.112;2022-09-09T14:05:36;5.10;;;2.95;;
30010;SDS011;16851;53.564;8.112;2022-09-09T14:10:41;8.40;;;3.15;;
30010;SDS011;16851;53.564;8.112;2022-09-09T14:15:45;8.45;;;3.75;;
30010;SDS011;16851;53.564;8.112;2022-09-09T14:20:49;7.95;;;4.20;;
30010;SDS011;16851;53.564;8.112;2022-09-09T14:25:53;7.20;;;3.67;;
30010;SDS011;16851;53.564;8.112;2022-09-09T14:31:02;10.13;;;4.35;;
30010;SDS011;16851;53.564;8.112;2022-09-09T14:36:05;12.68;;;5.15;;
30010;SDS011;16851;53.564;8.112;2022-09-09T14:41:14;12.32;;;5.88;;
30010;SDS011;16851;53.564;8.112;2022-09-09T14:46:23;18.23;;;7.32;;
30010;SDS011;16851;53.564;8.112;2022-09-09T14:51:29;15.05;;;7.78;;
30010;SDS011;16851;53.564;8.112;2022-09-09T14:56:31;13.50;;;8.85;;
30010;SDS011;16851;53.564;8.112;2022-09-09T15:01:35;14.25;;;8.93;;
30010;SDS011;16851;53.564;8.112;2022-09-09T15:06:38;15.90;;;9.75;;
30010;SDS011;16851;53.564;8.112;2022-09-09T15:11:43;14.07;;;9.90;;
30010;SDS011;16851;53.564;8.112;2022-09-09T15:16:49;13.52;;;8.13;;
30010;SDS011;16851;53.564;8.112;2022-09-09T15:21:51;16.90;;;7.28;;
30010;SDS011;16851;53.564;8.112;2022-09-09T15:26:52;8.52;;;6.55;;
30010;SDS011;16851;53.564;8.112;2022-09-09T15:31:58;10.43;;;5.40;;
30010;SDS011;16851;53.564;8.112;2022-09-09T15:37:12;9.98;;;3.80;;
30010;SDS011;16851;53.564;8.112;2022-09-09T15:42:16;7.03;;;2.10;;
30010;SDS011;16851;53.564;8.112;2022-09-09T15:47:19;6.40;;;1.80;;
30010;SDS011;16851;53.564;8.112;2022-09-09T15:52:21;7.18;;;1.98;;
30010;SDS011;16851;53.564;8.112;2022-09-09T15:57:25;8.48;;;2.65;;
30010;SDS011;16851;53.564;8.112;2022-09-09T16:02:29;11.32;;;3.22;;
30010;SDS011;16851;53.564;8.112;2022-09-09T16:07:34;8.43;;;2.70;;
30010;SDS011;16851;53.564;8.112;2022-09-09T16:12:41;9.10;;;3.33;;
30010;SDS011;16851;53.564;8.112;2022-09-09T16:17:43;9.80;;;3.90;;
30010;SDS011;16851;53.564;8.112;2022-09-09T16:22:47;10.43;;;4.50;;
30010;SDS011;16851;53.564;8.112;2022-09-09T16:27:49;10.20;;;4.25;;
30010;SDS011;16851;53.564;8.112;2022-09-09T16:32:53;11.15;;;4.05;;
30010;SDS011;16851;53.564;8.112;2022-09-09T16:37:54;9.82;;;4.57;;
30010;SDS011;16851;53.564;8.112;2022-09-09T16:42:58;13.45;;;5.38;;
30010;SDS011;16851;53.564;8.112;2022-09-09T16:48:03;11.82;;;5.32;;
30010;SDS011;16851;53.564;8.112;2022-09-09T16:53:06;13.68;;;5.60;;
30010;SDS011;16851;53.564;8.112;2022-09-09T16:58:11;12.40;;;5.40;;
30010;SDS011;16851;53.564;8.112;2022-09-09T17:03:15;6.60;;;2.13;;
30010;SDS011;16851;53.564;8.112;2022-09-09T17:08:19;11.82;;;4.75;;
30010;SDS011;16851;53.564;8.112;2022-09-09T17:13:21;5.68;;;2.53;;
30010;SDS011;16851;53.564;8.112;2022-09-09T17:18:25;6.35;;;3.63;;
30010;SDS011;16851;53.564;8.112;2022-09-09T17:23:29;8.48;;;2.92;;
30010;SDS011;16851;53.564;8.112;2022-09-09T17:28:36;6.13;;;2.95;;
30010;SDS011;16851;53.564;8.112;2022-09-09T17:33:45;7.15;;;2.75;;
30010;SDS011;16851;53.564;8.112;2022-09-09T17:38:52;7.63;;;3.15;;
30010;SDS011;16851;53.564;8.112;2022-09-09T17:43:55;7.28;;;3.40;;
30010;SDS011;16851;53.564;8.112;2022-09-09T17:48:59;8.75;;;4.47;;
30010;SDS011;16851;53.564;8.112;2022-09-09T17:54:06;6.88;;;4.05;;
30010;SDS011;16851;53.564;8.112;2022-09-09T17:59:16;11.02;;;5.38;;
30010;SDS011;16851;53.564;8.112;2022-09-09T18:04:22;6.90;;;4.70;;
30010;SDS011;16851;53.564;8.112;2022-09-09T18:09:26;8.15;;;5.13;;
30010;SDS011;16851;53.564;8.112;2022-09-09T18:14:32;9.98;;;6.40;;
30010;SDS011;16851;53.564;8.112;2022-09-09T18:19:37;14.40;;;8.30;;
30010;SDS011;16851;53.564;8.112;2022-09-09T18:24:39;9.95;;;6.75;;
30010;SDS011;16851;53.564;8.112;2022-09-09T18:29:48;11.32;;;6.95;;
30010;SDS011;16851;53.564;8.112;2022-09-09T18:34:51;12.00;;;7.47;;
30010;SDS011;16851;53.564;8.112;2022-09-09T18:39:57;13.75;;;7.10;;
30010;SDS011;16851;53.564;8.112;2022-09-09T18:45:01;14.25;;;7.78;;
30010;SDS011;16851;53.564;8.112;2022-09-09T18:50:05;14.48;;;8.52;;
30010;SDS011;16851;53.564;8.112;2022-09-09T18:55:12;10.05;;;7.40;;
30010;SDS011;16851;53.564;8.112;2022-09-09T19:00:13;11.85;;;7.30;;
30010;SDS011;16851;53.564;8.112;2022-09-09T19:05:18;14.82;;;7.93;;
30010;SDS011;16851;53.564;8.112;2022-09-09T19:10:20;14.75;;;9.45;;
30010;SDS011;16851;53.564;8.112;2022-09-09T19:15:22;10.80;;;6.30;;
30010;SDS011;16851;53.564;8.112;2022-09-09T19:20:24;13.50;;;7.30;;
30010;SDS011;16851;53.564;8.112;2022-09-09T19:25:29;8.73;;;6.53;;
30010;SDS011;16851;53.564;8.112;2022-09-09T19:30:38;8.50;;;5.70;;
30010;SDS011;16851;53.564;8.112;2022-09-09T19:35:40;10.02;;;5.20;;
30010;SDS011;16851;53.564;8.112;2022-09-09T19:40:44;7.25;;;4.05;;
30010;SDS011;16851;53.564;8.112;2022-09-09T19:45:56;6.03;;;3.60;;
30010;SDS011;16851;53.564;8.112;2022-09-09T19:51:21;5.30;;;3.58;;
30010;SDS011;16851;53.564;8.112;2022-09-09T19:56:27;4.65;;;2.90;;
30010;SDS011;16851;53.564;8.112;2022-09-09T20:01:34;10.77;;;3.00;;
30010;SDS011;16851;53.564;8.112;2022-09-09T20:06:41;5.15;;;3.20;;
30010;SDS011;16851;53.564;8.112;2022-09-09T20:11:46;7.70;;;3.92;;
30010;SDS011;16851;53.564;8.112;2022-09-09T20:16:51;9.32;;;3.70;;
30010;SDS011;16851;53.564;8.112;2022-09-09T20:21:55;5.75;;;4.13;;
30010;SDS011;16851;53.564;8.112;2022-09-09T20:27:05;10.32;;;4.80;;
30010;SDS011;16851;53.564;8.112;2022-09-09T20:32:07;10.38;;;4.15;;
30010;SDS011;16851;53.564;8.112;2022-09-09T20:37:15;6.45;;;3.90;;
30010;SDS011;16851;53.564;8.112;2022-09-09T20:42:20;7.68;;;4.30;;
30010;SDS011;16851;53.564;8.112;2022-09-09T20:47:24;6.47;;;5.03;;
30010;SDS011;16851;53.564;8.112;2022-09-09T20:52:26;9.15;;;4.30;;
30010;SDS011;16851;53.564;8.112;2022-09-09T20:57:34;6.80;;;4.88;;
30010;SDS011;16851;53.564;8.112;2022-09-09T21:02:38;8.52;;;5.03;;
30010;SDS011;16851;53.564;8.112;2022-09-09T21:07:41;10.05;;;5.07;;
30010;SDS011;16851;53.564;8.112;2022-09-09T21:12:42;8.27;;;5.40;;
30010;SDS011;16851;53.564;8.112;2022-09-09T21:17:45;9.93;;;5.43;;
30010;SDS011;16851;53.564;8.112;2022-09-09T21:22:47;18.52;;;5.20;;
30010;SDS011;16851;53.564;8.112;2022-09-09T21:27:56;9.77;;;5.68;;
30010;SDS011;16851;53.564;8.112;2022-09-09T21:33:03;11.80;;;4.80;;
30010;SDS011;16851;53.564;8.112;2022-09-09T21:38:14;7.82;;;4.55;;
30010;SDS011;16851;53.564;8.112;2022-09-09T21:43:18;8.18;;;4.72;;
30010;SDS011;16851;53.564;8.112;2022-09-09T21:48:20;5.95;;;4.57;;
30010;SDS011;16851;53.564;8.112;2022-09-09T21:53:26;9.93;;;5.65;;
30010;SDS011;16851;53.564;8.112;2022-09-09T21:58:30;7.90;;;5.47;;
30010;SDS011;16851;53.564;8.112;2022-09-09T22:03:36;8.52;;;5.93;;
30010;SDS011;16851;53.564;8.112;2022-09-09T22:08:45;8.07;;;5.63;;
30010;SDS011;16851;53.564;8.112;2022-09-09T22:13:50;10.20;;;6.53;;
30010;SDS011;16851;53.564;8.112;2022-09-09T22:18:54;10.85;;;6.85;;
30010;SDS011;16851;53.564;8.112;2022-09-09T22:24:00;10.30;;;7.32;;
30010;SDS011;16851;53.564;8.112;2022-09-09T22:29:04;9.93;;;7.72;;
30010;SDS011;16851;53.564;8.112;2022-09-09T22:34:14;12.73;;;9.07;;
30010;SDS011;16851;53.564;8.112;2022-09-09T22:39:16;12.75;;;8.75;;
30010;SDS011;16851;53.564;8.112;2022-09-09T22:44:24;12.25;;;8.65;;
30010;SDS011;16851;53.564;8.112;2022-09-09T22:49:30;16.30;;;8.93;;
30010;SDS011;16851;53.564;8.112;2022-09-09T22:54:36;11.80;;;8.13;;
30010;SDS011;16851;53.564;8.112;2022-09-09T22:59:41;13.05;;;9.73;;
30010;SDS011;16851;53.564;8.112;2022-09-09T23:04:43;12.45;;;11.00;;
30010;SDS011;16851;53.564;8.112;2022-09-09T23:09:47;14.10;;;9.75;;
30010;SDS011;16851;53.564;8.112;2022-09-09T23:14:51;11.88;;;9.00;;
30010;SDS011;16851;53.564;8.112;2022-09-09T23:20:00;12.45;;;8.30;;
30010;SDS011;16851;53.564;8.112;2022-09-09T23:25:05;12.45;;;8.57;;
30010;SDS011;16851;53.564;8.112;2022-09-09T23:30:07;10.82;;;8.40;;
30010;SDS011;16851;53.564;8.112;2022-09-09T23:35:11;12.32;;;8.43;;
30010;SDS011;16851;53.564;8.112;2022-09-09T23:40:15;10.80;;;8.75;;
30010;SDS011;16851;53.564;8.112;2022-09-09T23:45:23;13.23;;;8.60;;
30010;SDS011;16851;53.564;8.112;2022-09-09T23:50:28;11.13;;;8.57;;
30010;SDS011;16851;53.564;8.112;2022-09-09T23:55:33;10.20;;;8.23;;
